createdAt,value
2018-08-03T00:02:14.491Z,23.20
2018-08-03T00:04:43.195Z,23.20
2018-08-03T00:07:11.998Z,23.20
2018-08-03T00:09:40.795Z,23.20
2018-08-03T00:12:09.734Z,23.20
2018-08-03T00:14:38.322Z,23.20
2018-08-03T00:17:07.408Z,23.00
2018-08-03T00:19:35.814Z,23.00
2018-08-03T00:22:04.311Z,23.00
2018-08-03T00:24:32.730Z,22.90
2018-08-03T00:27:01.370Z,22.90
2018-08-03T00:29:31.306Z,22.90
2018-08-03T00:31:59.838Z,23.00
2018-08-03T00:34:28.353Z,23.00
2018-08-03T00:36:56.845Z,23.00
2018-08-03T00:39:25.298Z,23.00
2018-08-03T00:41:54.345Z,23.00
2018-08-03T00:44:22.881Z,23.00
2018-08-03T00:46:51.585Z,23.00
2018-08-03T00:49:20.278Z,23.10
2018-08-03T00:51:48.733Z,23.20
2018-08-03T00:54:17.518Z,23.10
2018-08-03T00:56:46.615Z,23.20
2018-08-03T00:59:15.364Z,23.20
2018-08-03T01:01:43.797Z,23.20
2018-08-03T01:04:12.554Z,23.30
2018-08-03T01:06:41.556Z,23.20
2018-08-03T01:09:12.359Z,23.20
2018-08-03T01:11:41.248Z,23.20
2018-08-03T01:14:10.379Z,23.20
2018-08-03T01:16:42.124Z,23.10
2018-08-03T01:19:13.426Z,23.10
2018-08-03T01:21:43.265Z,23.10
2018-08-03T01:24:11.994Z,23.10
2018-08-03T01:26:40.547Z,23.10
2018-08-03T01:29:09.654Z,23.10
2018-08-03T01:31:38.442Z,23.00
2018-08-03T01:34:06.946Z,23.00
2018-08-03T01:36:35.538Z,23.00
2018-08-03T01:39:07.071Z,22.90
2018-08-03T01:41:35.702Z,22.90
2018-08-03T01:44:04.494Z,22.80
2018-08-03T01:46:33.006Z,22.70
2018-08-03T01:49:01.453Z,22.60
2018-08-03T01:53:59.093Z,22.50
2018-08-03T01:56:27.505Z,22.50
2018-08-03T01:58:56.156Z,22.50
2018-08-03T02:01:24.853Z,22.60
2018-08-03T02:03:53.699Z,22.60
2018-08-03T02:06:22.398Z,22.60
2018-08-03T02:08:51.184Z,22.60
2018-08-03T02:11:20.035Z,22.60
2018-08-03T02:13:48.486Z,22.60
2018-08-03T02:16:17.016Z,22.60
2018-08-03T02:18:45.788Z,22.60
2018-08-03T02:21:14.589Z,22.60
2018-08-03T02:23:43.052Z,22.60
2018-08-03T02:26:11.524Z,22.50
2018-08-03T02:28:39.956Z,22.50
2018-08-03T02:31:08.836Z,22.50
2018-08-03T02:33:37.560Z,22.40
2018-08-03T02:36:06.085Z,22.30
2018-08-03T02:38:34.755Z,22.30
2018-08-03T02:41:03.564Z,22.40
2018-08-03T02:43:32.007Z,22.60
2018-08-03T02:46:00.459Z,22.70
2018-08-03T02:48:29.191Z,22.70
2018-08-03T02:50:57.628Z,22.70
2018-08-03T02:53:26.650Z,22.80
2018-08-03T02:55:55.078Z,22.80
2018-08-03T02:58:23.837Z,22.80
2018-08-03T03:00:52.528Z,22.90
2018-08-03T03:03:21.585Z,22.80
2018-08-03T03:05:50.016Z,22.70
2018-08-03T03:08:18.730Z,22.70
2018-08-03T03:10:47.370Z,22.70
2018-08-03T03:13:16.095Z,22.70
2018-08-03T03:15:45.079Z,22.70
2018-08-03T03:18:13.848Z,22.60
2018-08-03T03:20:42.723Z,22.60
2018-08-03T03:23:11.451Z,22.50
2018-08-03T03:25:39.929Z,22.50
2018-08-03T03:28:08.659Z,22.50
2018-08-03T03:30:37.584Z,22.50
2018-08-03T03:33:06.448Z,22.50
2018-08-03T03:35:34.890Z,22.50
2018-08-03T03:38:03.838Z,22.60
2018-08-03T03:40:32.524Z,22.60
2018-08-03T03:43:01.249Z,22.60
2018-08-03T03:45:30.012Z,22.60
2018-08-03T03:47:58.671Z,22.60
2018-08-03T03:50:27.103Z,22.60
2018-08-03T03:52:55.637Z,22.50
2018-08-03T03:55:24.148Z,22.50
2018-08-03T03:57:52.783Z,22.40
2018-08-03T04:02:49.910Z,22.40
2018-08-03T04:05:18.602Z,22.50
2018-08-03T04:07:47.056Z,22.60
2018-08-03T04:10:15.558Z,22.60
2018-08-03T04:12:44.294Z,22.70
2018-08-03T04:15:12.704Z,22.60
2018-08-03T04:17:41.145Z,22.60
2018-08-03T04:20:09.586Z,22.50
2018-08-03T04:22:38.139Z,22.50
2018-08-03T04:25:06.921Z,22.60
2018-08-03T04:27:35.839Z,22.60
2018-08-03T04:32:40.810Z,22.70
2018-08-03T04:35:09.509Z,22.70
2018-08-03T04:37:38.052Z,22.80
2018-08-03T04:40:06.984Z,22.80
2018-08-03T04:42:35.723Z,22.80
2018-08-03T04:45:04.564Z,22.70
2018-08-03T04:47:33.263Z,22.70
2018-08-03T04:50:01.995Z,22.70
2018-08-03T04:52:32.166Z,22.70
2018-08-03T04:55:00.930Z,22.70
2018-08-03T04:57:29.721Z,22.80
2018-08-03T04:59:58.167Z,22.90
2018-08-03T05:02:26.983Z,23.00
2018-08-03T05:04:55.700Z,23.00
2018-08-03T05:07:24.106Z,23.00
2018-08-03T05:09:52.754Z,23.00
2018-08-03T05:12:21.254Z,23.10
2018-08-03T05:14:49.876Z,23.10
2018-08-03T05:17:18.358Z,23.10
2018-08-03T05:19:47.120Z,23.10
2018-08-03T05:22:15.781Z,23.10
2018-08-03T05:24:44.311Z,23.10
2018-08-03T05:27:13.259Z,23.10
2018-08-03T05:29:42.075Z,23.10
2018-08-03T05:32:10.795Z,23.10
2018-08-03T05:34:39.227Z,23.20
2018-08-03T05:37:08.162Z,23.20
2018-08-03T05:39:36.917Z,23.20
2018-08-03T05:42:05.329Z,23.30
2018-08-03T05:44:33.954Z,23.20
2018-08-03T05:47:02.412Z,23.20
2018-08-03T05:49:31.991Z,23.20
2018-08-03T05:52:00.728Z,23.20
2018-08-03T05:54:29.151Z,23.30
2018-08-03T05:56:57.762Z,23.40
2018-08-03T05:59:26.505Z,23.50
2018-08-03T06:01:54.963Z,23.60
2018-08-03T06:04:23.694Z,23.60
2018-08-03T06:06:52.251Z,23.70
2018-08-03T06:09:21.025Z,23.80
2018-08-03T06:11:50.083Z,23.80
2018-08-03T06:14:18.634Z,23.90
2018-08-03T06:16:47.420Z,23.90
2018-08-03T06:19:16.208Z,23.90
2018-08-03T06:21:44.962Z,23.80
2018-08-03T06:24:14.105Z,23.80
2018-08-03T06:26:42.820Z,23.90
2018-08-03T06:29:11.542Z,23.90
2018-08-03T06:31:40.242Z,24.00
2018-08-03T06:34:08.858Z,24.00
2018-08-03T06:36:37.653Z,24.10
2018-08-03T06:39:08.104Z,24.20
2018-08-03T06:41:36.815Z,24.30
2018-08-03T06:44:05.607Z,24.40
2018-08-03T06:46:34.412Z,24.50
2018-08-03T06:49:02.872Z,24.50
2018-08-03T06:51:32.191Z,24.60
2018-08-03T06:54:00.904Z,24.70
2018-08-03T06:56:29.641Z,24.80
2018-08-03T06:58:58.325Z,24.90
2018-08-03T07:01:26.915Z,25.00
2018-08-03T07:03:55.511Z,25.00
2018-08-03T07:06:24.433Z,25.00
2018-08-03T07:08:53.187Z,25.10
2018-08-03T07:11:21.922Z,25.10
2018-08-03T07:13:50.387Z,25.20
2018-08-03T07:16:19.178Z,25.30
2018-08-03T07:18:47.879Z,25.40
2018-08-03T07:21:22.144Z,25.50
2018-08-03T07:23:50.907Z,25.60
2018-08-03T07:26:20.305Z,25.70
2018-08-03T07:28:49.211Z,25.80
2018-08-03T07:31:17.968Z,25.90
2018-08-03T07:33:46.402Z,26.10
2018-08-03T07:36:15.194Z,26.20
2018-08-03T07:38:44.186Z,26.30
2018-08-03T07:41:13.054Z,26.40
2018-08-03T07:43:42.237Z,26.60
2018-08-03T07:46:11.051Z,26.70
2018-08-03T07:48:40.098Z,26.80
2018-08-03T07:51:09.127Z,27.00
2018-08-03T07:53:38.153Z,27.10
2018-08-03T07:56:06.823Z,27.20
2018-08-03T07:58:35.593Z,27.20
2018-08-03T08:01:04.331Z,27.20
2018-08-03T08:03:33.042Z,27.30
2018-08-03T08:06:02.037Z,27.50
2018-08-03T08:08:32.005Z,27.50
2018-08-03T08:11:01.023Z,27.60
2018-08-03T08:13:30.090Z,27.70
2018-08-03T08:15:59.202Z,27.70
2018-08-03T08:18:27.878Z,27.80
2018-08-03T08:20:56.648Z,27.90
2018-08-03T08:23:25.392Z,27.80
2018-08-03T08:25:54.123Z,27.80
2018-08-03T08:28:23.114Z,28.00
2018-08-03T08:30:52.190Z,28.10
2018-08-03T08:33:20.916Z,28.30
2018-08-03T08:35:49.647Z,28.20
2018-08-03T08:38:18.378Z,28.10
2018-08-03T08:40:47.116Z,28.10
2018-08-03T08:43:16.113Z,28.10
2018-08-03T08:45:44.642Z,28.40
2018-08-03T08:48:13.531Z,28.50
2018-08-03T08:50:42.367Z,28.70
2018-08-03T08:53:11.089Z,28.70
2018-08-03T08:55:40.038Z,28.70
2018-08-03T08:58:08.750Z,28.70
2018-08-03T09:00:37.487Z,28.90
2018-08-03T09:03:06.527Z,29.00
2018-08-03T09:05:35.407Z,29.00
2018-08-03T09:08:04.269Z,29.10
2018-08-03T09:10:32.934Z,29.00
2018-08-03T09:13:01.809Z,29.10
2018-08-03T09:15:31.758Z,29.10
2018-08-03T09:18:00.493Z,29.10
2018-08-03T09:20:29.216Z,29.20
2018-08-03T09:22:58.345Z,29.30
2018-08-03T09:25:27.179Z,29.30
2018-08-03T09:27:56.161Z,29.50
2018-08-03T09:30:25.197Z,29.40
2018-08-03T09:32:54.166Z,29.50
2018-08-03T09:35:23.151Z,29.60
2018-08-03T09:37:52.448Z,29.50
2018-08-03T09:40:21.314Z,29.30
2018-08-03T09:42:50.346Z,29.50
2018-08-03T09:45:19.226Z,29.60
2018-08-03T09:47:48.206Z,29.70
2018-08-03T09:50:17.326Z,29.80
2018-08-03T09:52:46.424Z,29.80
2018-08-03T09:55:15.255Z,29.60
2018-08-03T09:57:44.214Z,29.50
2018-08-03T10:00:15.614Z,29.50
2018-08-03T10:02:44.867Z,29.60
2018-08-03T10:05:13.567Z,29.70
2018-08-03T10:07:42.296Z,29.90
2018-08-03T10:10:11.321Z,29.90
2018-08-03T10:12:40.479Z,29.90
2018-08-03T10:15:09.687Z,30.00
2018-08-03T10:17:38.366Z,30.00
2018-08-03T10:20:07.395Z,29.90
2018-08-03T10:22:36.584Z,30.00
2018-08-03T10:25:05.306Z,30.00
2018-08-03T10:27:34.302Z,30.00
2018-08-03T10:30:03.412Z,29.90
2018-08-03T10:32:32.530Z,29.90
2018-08-03T10:35:01.359Z,29.90
2018-08-03T10:37:30.280Z,30.00
2018-08-03T10:39:59.302Z,30.10
2018-08-03T10:42:28.352Z,30.20
2018-08-03T10:44:57.346Z,30.30
2018-08-03T10:47:26.368Z,30.20
2018-08-03T10:49:55.393Z,30.10
2018-08-03T10:52:24.383Z,30.20
2018-08-03T10:54:53.479Z,30.30
2018-08-03T10:57:22.468Z,30.30
2018-08-03T10:59:51.219Z,30.30
2018-08-03T11:02:19.916Z,30.40
2018-08-03T11:04:48.659Z,30.40
2018-08-03T11:07:17.335Z,30.20
2018-08-03T11:09:46.066Z,30.30
2018-08-03T11:12:14.807Z,30.00
2018-08-03T11:14:43.524Z,30.40
2018-08-03T11:17:12.211Z,30.40
2018-08-03T11:19:40.714Z,30.40
2018-08-03T11:22:09.660Z,30.50
2018-08-03T11:24:38.358Z,30.60
2018-08-03T11:27:07.447Z,30.60
2018-08-03T11:29:36.537Z,30.70
2018-08-03T11:32:05.422Z,30.80
2018-08-03T11:34:34.530Z,31.00
2018-08-03T11:37:03.576Z,30.80
2018-08-03T11:39:32.659Z,31.00
2018-08-03T11:42:01.426Z,31.20
2018-08-03T11:44:30.392Z,31.20
2018-08-03T11:46:59.412Z,31.30
2018-08-03T11:49:28.408Z,31.40
2018-08-03T11:51:57.444Z,31.40
2018-08-03T11:54:26.431Z,31.60
2018-08-03T11:56:55.370Z,31.70
2018-08-03T11:59:24.170Z,31.80
2018-08-03T12:01:53.023Z,31.90
2018-08-03T12:04:21.947Z,31.90
2018-08-03T12:06:50.648Z,31.80
2018-08-03T12:09:19.396Z,31.80
2018-08-03T12:11:48.128Z,32.20
2018-08-03T12:14:16.955Z,32.30
2018-08-03T12:16:45.692Z,32.30
2018-08-03T12:19:14.412Z,32.40
2018-08-03T12:21:42.978Z,32.60
2018-08-03T12:24:11.749Z,32.60
2018-08-03T12:26:40.543Z,32.70
2018-08-03T12:29:09.621Z,32.70
2018-08-03T12:31:38.755Z,32.90
2018-08-03T12:34:07.721Z,32.90
2018-08-03T12:36:36.481Z,32.80
2018-08-03T12:39:07.956Z,32.80
2018-08-03T12:41:36.817Z,32.80
2018-08-03T12:44:05.665Z,32.90
2018-08-03T12:46:34.442Z,33.10
2018-08-03T12:49:03.521Z,33.40
2018-08-03T12:51:33.103Z,33.40
2018-08-03T12:54:02.030Z,33.40
2018-08-03T12:56:30.774Z,33.40
2018-08-03T12:58:59.704Z,33.30
2018-08-03T13:01:28.442Z,33.70
2018-08-03T13:03:57.278Z,34.00
2018-08-03T13:06:26.037Z,33.80
2018-08-03T13:08:54.743Z,34.00
2018-08-03T13:11:23.712Z,34.40
2018-08-03T13:13:52.482Z,34.80
2018-08-03T13:16:21.202Z,34.50
2018-08-03T13:18:49.990Z,34.50
2018-08-03T13:21:29.966Z,34.60
2018-08-03T13:24:00.072Z,34.80
2018-08-03T13:26:28.930Z,34.90
2018-08-03T13:28:58.215Z,35.00
2018-08-03T13:31:28.008Z,35.10
2018-08-03T13:33:56.879Z,35.40
2018-08-03T13:36:26.790Z,35.50
2018-08-03T13:38:55.703Z,35.20
2018-08-03T13:41:24.693Z,35.40
2018-08-03T13:43:53.716Z,35.70
2018-08-03T13:46:22.729Z,35.50
2018-08-03T13:48:51.601Z,35.70
2018-08-03T13:51:20.738Z,35.60
2018-08-03T13:53:49.820Z,36.10
2018-08-03T13:56:19.024Z,36.30
2018-08-03T13:58:48.172Z,36.50
2018-08-03T14:01:28.202Z,36.80
2018-08-03T14:03:57.020Z,36.60
2018-08-03T14:06:25.878Z,36.70
2018-08-03T14:08:54.626Z,36.80
2018-08-03T14:11:23.722Z,36.90
2018-08-03T14:13:52.777Z,37.00
2018-08-03T14:16:21.747Z,37.20
2018-08-03T14:18:50.794Z,37.40
2018-08-03T14:21:19.653Z,37.40
2018-08-03T14:23:48.772Z,37.50
2018-08-03T14:26:17.756Z,37.50
2018-08-03T14:28:46.789Z,37.60
2018-08-03T14:31:15.794Z,37.80
2018-08-03T14:33:44.919Z,37.90
2018-08-03T14:36:13.637Z,37.90
2018-08-03T14:38:42.579Z,37.80
2018-08-03T14:41:11.805Z,37.70
2018-08-03T14:43:40.660Z,37.90
2018-08-03T14:46:09.526Z,38.00
2018-08-03T14:48:38.206Z,37.70
2018-08-03T14:51:07.060Z,37.60
2018-08-03T14:53:35.780Z,37.50
2018-08-03T14:56:04.893Z,37.30
2018-08-03T14:58:33.620Z,37.50
2018-08-03T15:01:02.305Z,37.60
2018-08-03T15:03:31.039Z,37.70
2018-08-03T15:05:59.743Z,37.80
2018-08-03T15:08:28.685Z,37.90
2018-08-03T15:10:57.433Z,37.80
2018-08-03T15:13:26.201Z,37.60
2018-08-03T15:15:54.977Z,37.50
2018-08-03T15:18:23.993Z,37.30
2018-08-03T15:20:52.749Z,37.10
2018-08-03T15:23:21.499Z,36.90
2018-08-03T15:25:50.276Z,36.70
2018-08-03T15:28:19.031Z,36.60
2018-08-03T15:30:48.005Z,36.50
2018-08-03T15:33:16.783Z,36.30
2018-08-03T15:35:45.350Z,35.70
2018-08-03T15:38:14.065Z,35.50
2018-08-03T15:43:11.722Z,34.90
2018-08-03T15:45:40.470Z,34.70
2018-08-03T15:48:09.162Z,34.70
2018-08-03T15:50:37.881Z,35.00
2018-08-03T15:53:07.488Z,34.90
2018-08-03T15:55:36.276Z,34.70
2018-08-03T15:58:05.125Z,34.40
2018-08-03T16:00:33.847Z,34.10
2018-08-03T16:03:02.908Z,33.90
2018-08-03T16:05:32.901Z,33.80
2018-08-03T16:08:01.883Z,33.60
2018-08-03T16:10:30.911Z,33.50
2018-08-03T16:12:59.925Z,33.40
2018-08-03T16:15:29.087Z,33.30
2018-08-03T16:17:57.889Z,33.30
2018-08-03T16:20:26.633Z,33.40
2018-08-03T16:22:55.327Z,33.30
2018-08-03T16:25:24.072Z,33.30
2018-08-03T16:27:52.790Z,33.30
2018-08-03T16:30:21.502Z,33.00
2018-08-03T16:32:50.192Z,32.90
2018-08-03T16:35:18.892Z,32.80
2018-08-03T16:37:47.658Z,32.80
2018-08-03T16:40:16.377Z,32.80
2018-08-03T16:42:45.036Z,32.80
2018-08-03T16:45:13.761Z,32.90
2018-08-03T16:47:42.437Z,32.80
2018-08-03T16:50:11.197Z,32.80
2018-08-03T16:52:39.879Z,32.90
2018-08-03T16:55:08.599Z,32.70
2018-08-03T16:57:37.229Z,32.60
2018-08-03T17:00:06.475Z,32.40
2018-08-03T17:02:35.210Z,32.40
2018-08-03T17:05:04.043Z,32.40
2018-08-03T17:07:33.180Z,32.40
2018-08-03T17:10:01.875Z,32.30
2018-08-03T17:12:30.646Z,32.30
2018-08-03T17:14:59.482Z,32.10
2018-08-03T17:17:28.162Z,32.00
2018-08-03T17:22:25.406Z,32.30
2018-08-03T17:24:54.214Z,32.10
2018-08-03T17:27:23.059Z,32.00
2018-08-03T17:29:51.579Z,31.80
2018-08-03T17:32:20.350Z,31.70
2018-08-03T17:34:49.053Z,31.60
2018-08-03T17:37:18.067Z,31.40
2018-08-03T17:39:47.128Z,31.20
2018-08-03T17:42:16.139Z,31.30
2018-08-03T17:44:45.224Z,31.20
2018-08-03T17:47:14.310Z,31.20
2018-08-03T17:49:43.024Z,31.20
2018-08-03T17:52:12.058Z,31.00
2018-08-03T17:54:40.734Z,31.00
2018-08-03T17:57:09.446Z,30.80
2018-08-03T17:59:38.211Z,30.60
2018-08-03T18:02:07.010Z,30.60
2018-08-03T18:04:35.464Z,30.50
2018-08-03T18:07:04.357Z,30.40
2018-08-03T18:09:33.596Z,30.40
2018-08-03T18:12:02.494Z,30.30
2018-08-03T18:14:31.245Z,30.10
2018-08-03T18:16:59.931Z,30.10
2018-08-03T18:19:28.638Z,29.90
2018-08-03T18:21:57.367Z,29.90
2018-08-03T18:24:26.203Z,29.70
2018-08-03T18:26:54.927Z,29.60
2018-08-03T18:29:23.794Z,29.50
2018-08-03T18:31:52.617Z,29.40
2018-08-03T18:34:21.309Z,29.30
2018-08-03T18:36:50.015Z,29.20
2018-08-03T18:39:18.717Z,29.20
2018-08-03T18:41:47.550Z,29.10
2018-08-03T18:44:16.305Z,29.10
2018-08-03T18:46:45.041Z,29.10
2018-08-03T18:49:13.750Z,28.90
2018-08-03T18:51:42.466Z,28.90
2018-08-03T18:54:11.165Z,28.80
2018-08-03T18:56:40.349Z,28.70
2018-08-03T18:59:09.049Z,28.60
2018-08-03T19:01:37.878Z,28.60
2018-08-03T19:04:06.577Z,28.50
2018-08-03T19:06:35.475Z,28.40
2018-08-03T19:09:05.711Z,28.30
2018-08-03T19:11:34.551Z,28.30
2018-08-03T19:14:03.287Z,28.20
2018-08-03T19:16:33.302Z,28.10
2018-08-03T19:19:02.567Z,28.10
2018-08-03T19:21:31.301Z,28.00
2018-08-03T19:24:00.324Z,27.90
2018-08-03T19:26:29.059Z,27.90
2018-08-03T19:28:57.811Z,27.80
2018-08-03T19:31:26.606Z,27.80
2018-08-03T19:33:55.299Z,27.80
2018-08-03T19:36:24.088Z,27.70
2018-08-03T19:38:52.818Z,27.70
2018-08-03T19:41:21.602Z,27.60
2018-08-03T19:43:50.330Z,27.60
2018-08-03T19:46:19.377Z,27.60
2018-08-03T19:48:48.704Z,27.60
2018-08-03T19:51:17.388Z,27.50
2018-08-03T19:53:46.073Z,27.50
2018-08-03T19:56:14.753Z,27.40
2018-08-03T19:58:43.505Z,27.40
2018-08-03T20:01:12.387Z,27.40
2018-08-03T20:03:41.111Z,27.40
2018-08-03T20:06:09.869Z,27.30
2018-08-03T20:08:38.619Z,27.30
2018-08-03T20:11:07.387Z,27.30
2018-08-03T20:13:35.998Z,27.20
2018-08-03T20:16:04.894Z,27.20
2018-08-03T20:18:33.738Z,27.20
2018-08-03T20:21:02.632Z,27.20
2018-08-03T20:23:31.741Z,27.20
2018-08-03T20:26:00.576Z,27.10
2018-08-03T20:28:29.603Z,27.10
2018-08-03T20:30:58.365Z,27.10
2018-08-03T20:33:27.390Z,27.00
2018-08-03T20:35:56.387Z,27.00
2018-08-03T20:38:26.769Z,27.00
2018-08-03T20:40:55.809Z,27.00
2018-08-03T20:43:24.648Z,27.00
2018-08-03T20:45:53.328Z,26.90
2018-08-03T20:48:22.376Z,26.90
2018-08-03T20:50:51.582Z,26.90
2018-08-03T20:53:20.743Z,26.80
2018-08-03T20:55:49.561Z,26.80
2018-08-03T20:58:18.335Z,26.80
2018-08-03T21:00:47.512Z,26.70
2018-08-03T21:03:16.407Z,26.70
2018-08-03T21:05:45.467Z,26.70
2018-08-03T21:08:14.261Z,26.70
2018-08-03T21:10:43.009Z,26.70
2018-08-03T21:13:11.771Z,26.60
2018-08-03T21:15:40.602Z,26.60
2018-08-03T21:18:09.322Z,26.50
2018-08-03T21:20:37.734Z,26.50
2018-08-03T21:23:06.930Z,26.50
2018-08-03T21:25:35.647Z,26.50
2018-08-03T21:28:04.386Z,26.50
2018-08-03T21:30:33.542Z,26.50
2018-08-03T21:33:02.306Z,26.40
2018-08-03T21:35:31.087Z,26.40
2018-08-03T21:38:00.083Z,26.40
2018-08-03T21:40:28.796Z,26.40
2018-08-03T21:42:57.659Z,26.30
2018-08-03T21:45:26.480Z,26.30
2018-08-03T21:47:55.517Z,26.30
2018-08-03T21:50:24.569Z,26.30
2018-08-03T21:52:53.645Z,26.20
2018-08-03T21:55:22.542Z,26.20
2018-08-03T21:57:51.469Z,26.10
2018-08-03T22:00:22.498Z,26.10
2018-08-03T22:02:51.649Z,26.10
2018-08-03T22:05:20.668Z,26.10
2018-08-03T22:07:49.383Z,26.10
2018-08-03T22:10:18.105Z,26.10
2018-08-03T22:12:46.789Z,26.00
2018-08-03T22:15:15.558Z,26.00
2018-08-03T22:17:44.674Z,26.00
2018-08-03T22:20:13.405Z,26.00
2018-08-03T22:22:41.921Z,25.90
2018-08-03T22:25:10.648Z,25.90
2018-08-03T22:27:39.427Z,25.80
2018-08-03T22:30:08.625Z,25.90
2018-08-03T22:32:37.732Z,25.90
2018-08-03T22:35:06.707Z,25.90
2018-08-03T22:40:03.916Z,25.90
2018-08-03T22:42:33.705Z,25.80
2018-08-03T22:45:02.711Z,25.80
2018-08-03T22:47:31.460Z,25.80
2018-08-03T22:50:00.690Z,25.80
2018-08-03T22:52:29.528Z,25.80
2018-08-03T22:54:58.632Z,25.70
2018-08-03T22:57:27.665Z,25.70
2018-08-03T22:59:56.681Z,25.70
2018-08-03T23:02:25.732Z,25.70
2018-08-03T23:04:54.481Z,25.60
2018-08-03T23:07:23.188Z,25.60
2018-08-03T23:09:51.833Z,25.60
2018-08-03T23:12:20.565Z,25.50
2018-08-03T23:14:49.668Z,25.40
2018-08-03T23:17:18.825Z,25.40
2018-08-03T23:19:47.571Z,25.40
2018-08-03T23:22:16.631Z,25.40
2018-08-03T23:24:45.625Z,25.40
2018-08-03T23:27:14.697Z,25.30
2018-08-03T23:29:43.705Z,25.30
2018-08-03T23:32:12.789Z,25.30
2018-08-03T23:34:41.667Z,25.30
2018-08-03T23:37:10.662Z,25.30
2018-08-03T23:39:39.783Z,25.20
2018-08-03T23:42:08.527Z,25.10
2018-08-03T23:44:37.266Z,25.10
2018-08-03T23:47:05.962Z,25.10
2018-08-03T23:49:34.794Z,25.10
2018-08-03T23:52:04.034Z,25.10
2018-08-03T23:54:33.854Z,25.00
2018-08-03T23:57:02.687Z,25.00
2018-08-03T23:59:31.690Z,25.00
